sensor_id;sensor_type;location;lat;lon;timestamp;P1;durP1;ratioP1;P2;durP2;ratioP2
65971;SDS011;52726;48.852;9.152;2022-10-17T00:00:50;11.90;;;3.33;;
65971;SDS011;52726;48.852;9.152;2022-10-17T00:03:15;7.07;;;3.95;;
65971;SDS011;52726;48.852;9.152;2022-10-17T00:05:42;5.07;;;3.50;;
65971;SDS011;52726;48.852;9.152;2022-10-17T00:08:09;11.18;;;3.42;;
65971;SDS011;52726;48.852;9.152;2022-10-17T00:10:36;8.75;;;3.05;;
65971;SDS011;52726;48.852;9.152;2022-10-17T00:13:02;6.78;;;2.95;;
65971;SDS011;52726;48.852;9.152;2022-10-17T00:15:27;8.88;;;3.30;;
65971;SDS011;52726;48.852;9.152;2022-10-17T00:17:53;8.13;;;3.30;;
65971;SDS011;52726;48.852;9.152;2022-10-17T00:20:18;9.60;;;3.15;;
65971;SDS011;52726;48.852;9.152;2022-10-17T00:22:43;5.10;;;2.80;;
65971;SDS011;52726;48.852;9.152;2022-10-17T00:25:09;7.43;;;3.13;;
65971;SDS011;52726;48.852;9.152;2022-10-17T00:27:35;6.10;;;3.22;;
65971;SDS011;52726;48.852;9.152;2022-10-17T00:30:02;5.82;;;2.58;;
65971;SDS011;52726;48.852;9.152;2022-10-17T00:32:28;8.75;;;2.47;;
65971;SDS011;52726;48.852;9.152;2022-10-17T00:34:53;7.05;;;2.67;;
65971;SDS011;52726;48.852;9.152;2022-10-17T00:37:19;7.85;;;3.03;;
65971;SDS011;52726;48.852;9.152;2022-10-17T00:39:44;7.18;;;2.35;;
65971;SDS011;52726;48.852;9.152;2022-10-17T00:42:11;4.45;;;2.13;;
65971;SDS011;52726;48.852;9.152;2022-10-17T00:47:07;3.70;;;2.60;;
65971;SDS011;52726;48.852;9.152;2022-10-17T00:49:35;6.25;;;2.58;;
65971;SDS011;52726;48.852;9.152;2022-10-17T00:52:12;8.38;;;2.78;;
65971;SDS011;52726;48.852;9.152;2022-10-17T00:54:46;4.22;;;2.78;;
65971;SDS011;52726;48.852;9.152;2022-10-17T00:57:15;7.65;;;2.80;;
65971;SDS011;52726;48.852;9.152;2022-10-17T00:59:41;9.88;;;3.35;;
65971;SDS011;52726;48.852;9.152;2022-10-17T01:02:13;2.95;;;2.30;;
65971;SDS011;52726;48.852;9.152;2022-10-17T01:04:42;9.63;;;3.80;;
65971;SDS011;52726;48.852;9.152;2022-10-17T01:07:10;3.90;;;2.55;;
65971;SDS011;52726;48.852;9.152;2022-10-17T01:09:35;8.57;;;2.83;;
65971;SDS011;52726;48.852;9.152;2022-10-17T01:14:31;9.85;;;2.40;;
65971;SDS011;52726;48.852;9.152;2022-10-17T01:19:54;3.22;;;2.30;;
65971;SDS011;52726;48.852;9.152;2022-10-17T01:22:48;10.10;;;2.60;;
65971;SDS011;52726;48.852;9.152;2022-10-17T01:25:43;6.10;;;2.60;;
65971;SDS011;52726;48.852;9.152;2022-10-17T01:30:58;3.08;;;2.25;;
65971;SDS011;52726;48.852;9.152;2022-10-17T01:36:09;10.20;;;2.58;;
65971;SDS011;52726;48.852;9.152;2022-10-17T01:43:54;8.68;;;2.70;;
65971;SDS011;52726;48.852;9.152;2022-10-17T01:46:28;4.30;;;2.08;;
65971;SDS011;52726;48.852;9.152;2022-10-17T01:48:59;4.28;;;2.28;;
65971;SDS011;52726;48.852;9.152;2022-10-17T01:51:27;3.80;;;2.25;;
65971;SDS011;52726;48.852;9.152;2022-10-17T01:53:59;2.92;;;2.08;;
65971;SDS011;52726;48.852;9.152;2022-10-17T01:56:27;5.88;;;2.47;;
65971;SDS011;52726;48.852;9.152;2022-10-17T01:58:57;2.40;;;2.17;;
65971;SDS011;52726;48.852;9.152;2022-10-17T02:01:25;3.08;;;2.30;;
65971;SDS011;52726;48.852;9.152;2022-10-17T02:03:53;5.90;;;2.58;;
65971;SDS011;52726;48.852;9.152;2022-10-17T02:06:22;6.32;;;2.45;;
65971;SDS011;52726;48.852;9.152;2022-10-17T02:08:48;7.32;;;2.15;;
65971;SDS011;52726;48.852;9.152;2022-10-17T02:11:21;3.25;;;2.33;;
65971;SDS011;52726;48.852;9.152;2022-10-17T02:16:46;8.15;;;2.53;;
65971;SDS011;52726;48.852;9.152;2022-10-17T02:19:34;2.72;;;2.35;;
65971;SDS011;52726;48.852;9.152;2022-10-17T02:25:08;3.53;;;2.13;;
65971;SDS011;52726;48.852;9.152;2022-10-17T02:30:13;4.30;;;2.40;;
65971;SDS011;52726;48.852;9.152;2022-10-17T02:35:17;6.80;;;2.70;;
65971;SDS011;52726;48.852;9.152;2022-10-17T02:37:45;9.00;;;2.50;;
65971;SDS011;52726;48.852;9.152;2022-10-17T02:40:12;4.97;;;2.42;;
65971;SDS011;52726;48.852;9.152;2022-10-17T02:42:40;5.65;;;2.63;;
65971;SDS011;52726;48.852;9.152;2022-10-17T02:45:09;7.90;;;2.22;;
65971;SDS011;52726;48.852;9.152;2022-10-17T02:47:36;4.70;;;2.25;;
65971;SDS011;52726;48.852;9.152;2022-10-17T02:50:08;4.28;;;2.83;;
65971;SDS011;52726;48.852;9.152;2022-10-17T02:55:30;4.25;;;2.50;;
65971;SDS011;52726;48.852;9.152;2022-10-17T02:58:01;5.47;;;2.60;;
65971;SDS011;52726;48.852;9.152;2022-10-17T03:00:29;6.90;;;2.58;;
65971;SDS011;52726;48.852;9.152;2022-10-17T03:02:55;6.55;;;2.65;;
65971;SDS011;52726;48.852;9.152;2022-10-17T03:05:22;6.13;;;2.30;;
65971;SDS011;52726;48.852;9.152;2022-10-17T03:07:49;8.38;;;2.70;;
65971;SDS011;52726;48.852;9.152;2022-10-17T03:10:15;4.60;;;2.45;;
65971;SDS011;52726;48.852;9.152;2022-10-17T03:12:41;6.70;;;2.60;;
65971;SDS011;52726;48.852;9.152;2022-10-17T03:15:06;6.43;;;2.85;;
65971;SDS011;52726;48.852;9.152;2022-10-17T03:17:32;9.27;;;3.03;;
65971;SDS011;52726;48.852;9.152;2022-10-17T03:19:59;3.90;;;2.30;;
65971;SDS011;52726;48.852;9.152;2022-10-17T03:22:24;3.55;;;2.50;;
65971;SDS011;52726;48.852;9.152;2022-10-17T03:24:50;6.30;;;2.17;;
65971;SDS011;52726;48.852;9.152;2022-10-17T03:27:15;17.95;;;2.95;;
65971;SDS011;52726;48.852;9.152;2022-10-17T03:29:40;7.80;;;2.60;;
65971;SDS011;52726;48.852;9.152;2022-10-17T03:32:06;5.45;;;2.38;;
65971;SDS011;52726;48.852;9.152;2022-10-17T03:34:31;8.63;;;2.55;;
65971;SDS011;52726;48.852;9.152;2022-10-17T03:36:57;11.70;;;2.72;;
65971;SDS011;52726;48.852;9.152;2022-10-17T03:39:22;4.03;;;2.45;;
65971;SDS011;52726;48.852;9.152;2022-10-17T03:41:47;5.90;;;2.70;;
65971;SDS011;52726;48.852;9.152;2022-10-17T03:44:13;6.43;;;2.55;;
65971;SDS011;52726;48.852;9.152;2022-10-17T03:46:39;9.55;;;3.00;;
65971;SDS011;52726;48.852;9.152;2022-10-17T03:49:04;12.45;;;4.10;;
65971;SDS011;52726;48.852;9.152;2022-10-17T03:51:31;5.57;;;2.25;;
65971;SDS011;52726;48.852;9.152;2022-10-17T03:53:57;5.20;;;2.70;;
65971;SDS011;52726;48.852;9.152;2022-10-17T03:56:23;6.20;;;2.58;;
65971;SDS011;52726;48.852;9.152;2022-10-17T03:58:49;6.13;;;2.75;;
65971;SDS011;52726;48.852;9.152;2022-10-17T04:01:15;5.90;;;3.13;;
65971;SDS011;52726;48.852;9.152;2022-10-17T04:03:41;3.88;;;2.60;;
65971;SDS011;52726;48.852;9.152;2022-10-17T04:06:07;4.68;;;2.55;;
65971;SDS011;52726;48.852;9.152;2022-10-17T04:08:36;14.07;;;2.67;;
65971;SDS011;52726;48.852;9.152;2022-10-17T04:11:02;6.00;;;3.08;;
65971;SDS011;52726;48.852;9.152;2022-10-17T04:13:29;6.90;;;2.67;;
65971;SDS011;52726;48.852;9.152;2022-10-17T04:16:02;8.02;;;2.95;;
65971;SDS011;52726;48.852;9.152;2022-10-17T04:18:31;3.60;;;2.80;;
65971;SDS011;52726;48.852;9.152;2022-10-17T04:20:57;12.02;;;2.83;;
65971;SDS011;52726;48.852;9.152;2022-10-17T04:23:24;4.45;;;2.28;;
65971;SDS011;52726;48.852;9.152;2022-10-17T04:25:54;7.13;;;3.35;;
65971;SDS011;52726;48.852;9.152;2022-10-17T04:28:20;6.53;;;2.50;;
65971;SDS011;52726;48.852;9.152;2022-10-17T04:30:45;3.67;;;2.70;;
65971;SDS011;52726;48.852;9.152;2022-10-17T04:33:10;3.40;;;2.47;;
65971;SDS011;52726;48.852;9.152;2022-10-17T04:35:36;3.50;;;2.58;;
65971;SDS011;52726;48.852;9.152;2022-10-17T04:38:01;6.60;;;2.65;;
65971;SDS011;52726;48.852;9.152;2022-10-17T04:40:26;3.28;;;2.20;;
65971;SDS011;52726;48.852;9.152;2022-10-17T04:42:54;5.20;;;2.60;;
65971;SDS011;52726;48.852;9.152;2022-10-17T04:45:19;8.88;;;2.20;;
65971;SDS011;52726;48.852;9.152;2022-10-17T04:47:45;2.60;;;2.17;;
65971;SDS011;52726;48.852;9.152;2022-10-17T04:50:10;4.97;;;2.55;;
65971;SDS011;52726;48.852;9.152;2022-10-17T04:52:35;4.20;;;2.70;;
65971;SDS011;52726;48.852;9.152;2022-10-17T04:55:04;2.55;;;2.03;;
65971;SDS011;52726;48.852;9.152;2022-10-17T04:57:32;5.22;;;2.63;;
65971;SDS011;52726;48.852;9.152;2022-10-17T04:59:58;3.72;;;2.25;;
65971;SDS011;52726;48.852;9.152;2022-10-17T05:02:24;6.90;;;2.65;;
65971;SDS011;52726;48.852;9.152;2022-10-17T05:04:49;2.47;;;2.00;;
65971;SDS011;52726;48.852;9.152;2022-10-17T05:07:14;7.18;;;3.20;;
65971;SDS011;52726;48.852;9.152;2022-10-17T05:09:40;4.05;;;2.40;;
65971;SDS011;52726;48.852;9.152;2022-10-17T05:12:05;3.92;;;2.50;;
65971;SDS011;52726;48.852;9.152;2022-10-17T05:14:30;7.72;;;2.53;;
65971;SDS011;52726;48.852;9.152;2022-10-17T05:16:56;9.32;;;2.53;;
65971;SDS011;52726;48.852;9.152;2022-10-17T05:19:21;10.77;;;2.60;;
65971;SDS011;52726;48.852;9.152;2022-10-17T05:21:46;4.85;;;2.92;;
65971;SDS011;52726;48.852;9.152;2022-10-17T05:24:12;10.27;;;2.78;;
65971;SDS011;52726;48.852;9.152;2022-10-17T05:26:38;5.22;;;2.80;;
65971;SDS011;52726;48.852;9.152;2022-10-17T05:29:04;4.00;;;2.42;;
65971;SDS011;52726;48.852;9.152;2022-10-17T05:31:29;7.35;;;2.90;;
65971;SDS011;52726;48.852;9.152;2022-10-17T05:34:02;6.13;;;2.45;;
65971;SDS011;52726;48.852;9.152;2022-10-17T05:36:30;4.07;;;2.40;;
65971;SDS011;52726;48.852;9.152;2022-10-17T05:38:56;6.32;;;2.88;;
65971;SDS011;52726;48.852;9.152;2022-10-17T05:41:21;8.20;;;3.13;;
65971;SDS011;52726;48.852;9.152;2022-10-17T05:43:50;7.00;;;3.55;;
65971;SDS011;52726;48.852;9.152;2022-10-17T05:46:15;8.32;;;3.20;;
65971;SDS011;52726;48.852;9.152;2022-10-17T05:48:41;19.75;;;3.28;;
65971;SDS011;52726;48.852;9.152;2022-10-17T05:51:07;9.05;;;3.35;;
65971;SDS011;52726;48.852;9.152;2022-10-17T05:53:34;5.18;;;2.90;;
65971;SDS011;52726;48.852;9.152;2022-10-17T05:56:05;5.50;;;3.00;;
65971;SDS011;52726;48.852;9.152;2022-10-17T05:58:32;4.40;;;2.78;;
65971;SDS011;52726;48.852;9.152;2022-10-17T06:01:02;7.53;;;2.90;;
65971;SDS011;52726;48.852;9.152;2022-10-17T06:03:29;11.60;;;3.27;;
65971;SDS011;52726;48.852;9.152;2022-10-17T06:05:55;5.72;;;2.67;;
65971;SDS011;52726;48.852;9.152;2022-10-17T06:08:21;4.53;;;2.85;;
65971;SDS011;52726;48.852;9.152;2022-10-17T06:10:49;5.15;;;2.88;;
65971;SDS011;52726;48.852;9.152;2022-10-17T06:13:16;3.72;;;2.58;;
65971;SDS011;52726;48.852;9.152;2022-10-17T06:15:42;3.70;;;2.70;;
65971;SDS011;52726;48.852;9.152;2022-10-17T06:18:09;6.65;;;2.90;;
65971;SDS011;52726;48.852;9.152;2022-10-17T06:20:35;4.55;;;2.70;;
65971;SDS011;52726;48.852;9.152;2022-10-17T06:23:01;7.70;;;2.88;;
65971;SDS011;52726;48.852;9.152;2022-10-17T06:25:26;6.28;;;2.80;;
65971;SDS011;52726;48.852;9.152;2022-10-17T06:27:53;10.70;;;3.30;;
65971;SDS011;52726;48.852;9.152;2022-10-17T06:30:18;4.57;;;3.00;;
65971;SDS011;52726;48.852;9.152;2022-10-17T06:32:44;9.95;;;3.33;;
65971;SDS011;52726;48.852;9.152;2022-10-17T06:35:18;6.47;;;2.95;;
65971;SDS011;52726;48.852;9.152;2022-10-17T06:37:44;5.65;;;2.47;;
65971;SDS011;52726;48.852;9.152;2022-10-17T06:40:42;2.80;;;2.40;;
65971;SDS011;52726;48.852;9.152;2022-10-17T06:43:01;8.75;;;2.50;;
65971;SDS011;52726;48.852;9.152;2022-10-17T06:45:26;6.70;;;2.33;;
65971;SDS011;52726;48.852;9.152;2022-10-17T06:47:52;5.35;;;2.78;;
65971;SDS011;52726;48.852;9.152;2022-10-17T06:50:17;5.32;;;2.17;;
65971;SDS011;52726;48.852;9.152;2022-10-17T06:52:43;10.90;;;2.75;;
65971;SDS011;52726;48.852;9.152;2022-10-17T06:55:08;5.82;;;3.00;;
65971;SDS011;52726;48.852;9.152;2022-10-17T06:57:33;6.57;;;2.60;;
65971;SDS011;52726;48.852;9.152;2022-10-17T06:59:59;7.90;;;2.38;;
65971;SDS011;52726;48.852;9.152;2022-10-17T07:02:25;6.22;;;2.70;;
65971;SDS011;52726;48.852;9.152;2022-10-17T07:04:50;5.47;;;2.88;;
65971;SDS011;52726;48.852;9.152;2022-10-17T07:07:16;3.67;;;2.30;;
65971;SDS011;52726;48.852;9.152;2022-10-17T07:09:41;5.57;;;2.50;;
65971;SDS011;52726;48.852;9.152;2022-10-17T07:12:06;9.15;;;2.42;;
65971;SDS011;52726;48.852;9.152;2022-10-17T07:14:33;5.53;;;2.60;;
65971;SDS011;52726;48.852;9.152;2022-10-17T07:16:59;6.13;;;2.25;;
65971;SDS011;52726;48.852;9.152;2022-10-17T07:19:25;6.63;;;2.95;;
65971;SDS011;52726;48.852;9.152;2022-10-17T07:21:53;8.50;;;2.80;;
65971;SDS011;52726;48.852;9.152;2022-10-17T07:24:19;6.25;;;2.08;;
65971;SDS011;52726;48.852;9.152;2022-10-17T07:26:44;8.40;;;2.33;;
65971;SDS011;52726;48.852;9.152;2022-10-17T07:29:10;10.45;;;2.53;;
65971;SDS011;52726;48.852;9.152;2022-10-17T07:31:35;13.88;;;2.90;;
65971;SDS011;52726;48.852;9.152;2022-10-17T07:34:01;5.75;;;2.22;;
65971;SDS011;52726;48.852;9.152;2022-10-17T07:36:27;9.85;;;2.70;;
65971;SDS011;52726;48.852;9.152;2022-10-17T07:38:52;9.45;;;3.33;;
65971;SDS011;52726;48.852;9.152;2022-10-17T07:41:18;6.35;;;2.20;;
65971;SDS011;52726;48.852;9.152;2022-10-17T07:43:44;7.85;;;2.70;;
65971;SDS011;52726;48.852;9.152;2022-10-17T07:46:10;7.68;;;2.67;;
65971;SDS011;52726;48.852;9.152;2022-10-17T07:48:36;9.80;;;2.85;;
65971;SDS011;52726;48.852;9.152;2022-10-17T07:51:04;5.88;;;2.92;;
65971;SDS011;52726;48.852;9.152;2022-10-17T07:53:30;5.00;;;2.63;;
65971;SDS011;52726;48.852;9.152;2022-10-17T07:55:56;7.63;;;2.17;;
65971;SDS011;52726;48.852;9.152;2022-10-17T07:58:22;6.55;;;2.10;;
65971;SDS011;52726;48.852;9.152;2022-10-17T08:00:47;5.93;;;2.20;;
65971;SDS011;52726;48.852;9.152;2022-10-17T08:03:14;5.53;;;2.28;;
65971;SDS011;52726;48.852;9.152;2022-10-17T08:05:40;6.97;;;2.30;;
65971;SDS011;52726;48.852;9.152;2022-10-17T08:08:06;7.20;;;2.65;;
65971;SDS011;52726;48.852;9.152;2022-10-17T08:10:31;9.23;;;2.35;;
65971;SDS011;52726;48.852;9.152;2022-10-17T08:12:57;7.15;;;2.53;;
65971;SDS011;52726;48.852;9.152;2022-10-17T08:15:23;6.93;;;2.38;;
65971;SDS011;52726;48.852;9.152;2022-10-17T08:17:49;8.43;;;2.70;;
65971;SDS011;52726;48.852;9.152;2022-10-17T08:20:15;6.57;;;2.30;;
65971;SDS011;52726;48.852;9.152;2022-10-17T08:22:41;9.02;;;2.70;;
65971;SDS011;52726;48.852;9.152;2022-10-17T08:25:06;5.50;;;2.30;;
65971;SDS011;52726;48.852;9.152;2022-10-17T08:27:32;8.07;;;2.00;;
65971;SDS011;52726;48.852;9.152;2022-10-17T08:29:58;7.78;;;2.50;;
65971;SDS011;52726;48.852;9.152;2022-10-17T08:32:24;10.60;;;2.55;;
65971;SDS011;52726;48.852;9.152;2022-10-17T08:34:52;5.47;;;2.08;;
65971;SDS011;52726;48.852;9.152;2022-10-17T08:37:17;11.32;;;2.45;;
65971;SDS011;52726;48.852;9.152;2022-10-17T08:39:43;14.55;;;2.80;;
65971;SDS011;52726;48.852;9.152;2022-10-17T08:42:16;4.18;;;2.75;;
65971;SDS011;52726;48.852;9.152;2022-10-17T08:47:48;7.90;;;2.58;;
65971;SDS011;52726;48.852;9.152;2022-10-17T08:53:31;7.57;;;2.30;;
65971;SDS011;52726;48.852;9.152;2022-10-17T08:56:06;4.00;;;2.10;;
65971;SDS011;52726;48.852;9.152;2022-10-17T08:58:40;11.32;;;3.70;;
65971;SDS011;52726;48.852;9.152;2022-10-17T09:07:09;6.40;;;1.85;;
65971;SDS011;52726;48.852;9.152;2022-10-17T09:16:15;5.60;;;2.20;;
65971;SDS011;52726;48.852;9.152;2022-10-17T09:19:11;4.38;;;2.40;;
65971;SDS011;52726;48.852;9.152;2022-10-17T09:24:29;3.38;;;2.20;;
65971;SDS011;52726;48.852;9.152;2022-10-17T09:26:58;4.85;;;2.45;;
65971;SDS011;52726;48.852;9.152;2022-10-17T09:29:24;9.18;;;2.70;;
65971;SDS011;52726;48.852;9.152;2022-10-17T09:31:56;5.28;;;2.40;;
65971;SDS011;52726;48.852;9.152;2022-10-17T09:34:36;7.75;;;2.92;;
65971;SDS011;52726;48.852;9.152;2022-10-17T09:37:02;7.55;;;2.55;;
65971;SDS011;52726;48.852;9.152;2022-10-17T09:39:27;4.47;;;2.30;;
65971;SDS011;52726;48.852;9.152;2022-10-17T09:41:57;7.75;;;2.53;;
65971;SDS011;52726;48.852;9.152;2022-10-17T09:49:59;7.55;;;2.00;;
65971;SDS011;52726;48.852;9.152;2022-10-17T09:52:32;12.05;;;2.00;;
65971;SDS011;52726;48.852;9.152;2022-10-17T09:57:50;5.82;;;2.78;;
65971;SDS011;52726;48.852;9.152;2022-10-17T10:00:30;7.47;;;2.15;;
65971;SDS011;52726;48.852;9.152;2022-10-17T10:08:55;3.70;;;2.13;;
65971;SDS011;52726;48.852;9.152;2022-10-17T10:11:43;9.75;;;2.22;;
65971;SDS011;52726;48.852;9.152;2022-10-17T10:14:21;9.13;;;2.25;;
65971;SDS011;52726;48.852;9.152;2022-10-17T10:16:50;8.15;;;2.35;;
65971;SDS011;52726;48.852;9.152;2022-10-17T10:22:00;4.18;;;2.17;;
65971;SDS011;52726;48.852;9.152;2022-10-17T10:24:27;6.70;;;2.25;;
65971;SDS011;52726;48.852;9.152;2022-10-17T10:26:54;7.68;;;2.40;;
65971;SDS011;52726;48.852;9.152;2022-10-17T10:29:35;2.92;;;1.85;;
65971;SDS011;52726;48.852;9.152;2022-10-17T10:35:05;9.32;;;2.10;;
65971;SDS011;52726;48.852;9.152;2022-10-17T10:37:52;7.40;;;2.15;;
65971;SDS011;52726;48.852;9.152;2022-10-17T10:41:06;4.35;;;2.20;;
65971;SDS011;52726;48.852;9.152;2022-10-17T10:43:19;15.40;;;2.30;;
65971;SDS011;52726;48.852;9.152;2022-10-17T10:45:47;4.90;;;2.17;;
65971;SDS011;52726;48.852;9.152;2022-10-17T10:48:33;4.90;;;1.95;;
65971;SDS011;52726;48.852;9.152;2022-10-17T10:59:03;9.10;;;2.28;;
65971;SDS011;52726;48.852;9.152;2022-10-17T11:01:53;7.35;;;2.10;;
65971;SDS011;52726;48.852;9.152;2022-10-17T11:07:01;6.93;;;1.80;;
65971;SDS011;52726;48.852;9.152;2022-10-17T11:12:26;1.73;;;1.30;;
65971;SDS011;52726;48.852;9.152;2022-10-17T11:25:24;3.78;;;1.77;;
65971;SDS011;52726;48.852;9.152;2022-10-17T11:27:58;3.50;;;1.65;;
65971;SDS011;52726;48.852;9.152;2022-10-17T11:30:25;7.32;;;1.80;;
65971;SDS011;52726;48.852;9.152;2022-10-17T11:32:54;5.70;;;1.75;;
65971;SDS011;52726;48.852;9.152;2022-10-17T11:35:32;4.80;;;1.90;;
65971;SDS011;52726;48.852;9.152;2022-10-17T11:40:49;3.25;;;1.55;;
65971;SDS011;52726;48.852;9.152;2022-10-17T11:43:18;8.40;;;2.03;;
65971;SDS011;52726;48.852;9.152;2022-10-17T11:46:21;5.10;;;1.42;;
65971;SDS011;52726;48.852;9.152;2022-10-17T11:51:14;2.08;;;1.23;;
65971;SDS011;52726;48.852;9.152;2022-10-17T11:56:16;7.95;;;2.22;;
65971;SDS011;52726;48.852;9.152;2022-10-17T11:58:53;3.28;;;1.42;;
65971;SDS011;52726;48.852;9.152;2022-10-17T12:01:37;3.08;;;1.40;;
65971;SDS011;52726;48.852;9.152;2022-10-17T12:06:58;2.35;;;1.15;;
65971;SDS011;52726;48.852;9.152;2022-10-17T12:12:22;1.85;;;1.50;;
65971;SDS011;52726;48.852;9.152;2022-10-17T12:14:53;2.45;;;1.20;;
65971;SDS011;52726;48.852;9.152;2022-10-17T12:25:27;2.17;;;1.20;;
65971;SDS011;52726;48.852;9.152;2022-10-17T12:31:06;1.85;;;1.27;;
65971;SDS011;52726;48.852;9.152;2022-10-17T12:33:56;3.53;;;1.13;;
65971;SDS011;52726;48.852;9.152;2022-10-17T12:37:42;3.45;;;1.50;;
65971;SDS011;52726;48.852;9.152;2022-10-17T12:45:53;4.45;;;1.50;;
65971;SDS011;52726;48.852;9.152;2022-10-17T12:51:02;3.25;;;1.60;;
65971;SDS011;52726;48.852;9.152;2022-10-17T12:56:34;6.93;;;1.85;;
65971;SDS011;52726;48.852;9.152;2022-10-17T12:59:07;1.95;;;1.52;;
65971;SDS011;52726;48.852;9.152;2022-10-17T13:01:38;3.00;;;1.42;;
65971;SDS011;52726;48.852;9.152;2022-10-17T13:04:08;4.97;;;1.73;;
65971;SDS011;52726;48.852;9.152;2022-10-17T13:06:44;5.47;;;2.20;;
65971;SDS011;52726;48.852;9.152;2022-10-17T13:09:28;2.80;;;1.90;;
65971;SDS011;52726;48.852;9.152;2022-10-17T13:11:56;5.82;;;1.70;;
65971;SDS011;52726;48.852;9.152;2022-10-17T13:14:23;5.97;;;1.73;;
65971;SDS011;52726;48.852;9.152;2022-10-17T13:16:57;4.03;;;1.40;;
65971;SDS011;52726;48.852;9.152;2022-10-17T13:19:31;4.65;;;1.58;;
65971;SDS011;52726;48.852;9.152;2022-10-17T13:22:24;1.83;;;1.63;;
65971;SDS011;52726;48.852;9.152;2022-10-17T13:25:07;6.90;;;1.83;;
65971;SDS011;52726;48.852;9.152;2022-10-17T13:27:38;2.13;;;1.38;;
65971;SDS011;52726;48.852;9.152;2022-10-17T13:33:27;7.72;;;2.58;;
65971;SDS011;52726;48.852;9.152;2022-10-17T13:36:00;7.93;;;2.05;;
65971;SDS011;52726;48.852;9.152;2022-10-17T13:38:29;8.13;;;2.13;;
65971;SDS011;52726;48.852;9.152;2022-10-17T13:41:00;5.30;;;1.83;;
65971;SDS011;52726;48.852;9.152;2022-10-17T13:43:26;6.35;;;2.35;;
65971;SDS011;52726;48.852;9.152;2022-10-17T13:45:58;10.45;;;2.90;;
65971;SDS011;52726;48.852;9.152;2022-10-17T13:48:29;4.43;;;2.10;;
65971;SDS011;52726;48.852;9.152;2022-10-17T13:50:57;3.60;;;1.90;;
65971;SDS011;52726;48.852;9.152;2022-10-17T13:53:33;5.50;;;1.40;;
65971;SDS011;52726;48.852;9.152;2022-10-17T13:56:19;2.72;;;1.40;;
65971;SDS011;52726;48.852;9.152;2022-10-17T13:58:48;3.97;;;1.50;;
65971;SDS011;52726;48.852;9.152;2022-10-17T14:01:16;3.33;;;1.40;;
65971;SDS011;52726;48.852;9.152;2022-10-17T14:03:43;5.72;;;1.50;;
65971;SDS011;52726;48.852;9.152;2022-10-17T14:08:47;3.03;;;1.33;;
65971;SDS011;52726;48.852;9.152;2022-10-17T14:11:19;9.38;;;1.80;;
65971;SDS011;52726;48.852;9.152;2022-10-17T14:14:13;4.32;;;1.48;;
65971;SDS011;52726;48.852;9.152;2022-10-17T14:19:49;2.92;;;1.42;;
65971;SDS011;52726;48.852;9.152;2022-10-17T14:22:22;4.15;;;1.38;;
65971;SDS011;52726;48.852;9.152;2022-10-17T14:24:51;5.85;;;2.58;;
65971;SDS011;52726;48.852;9.152;2022-10-17T14:29:49;5.85;;;1.70;;
65971;SDS011;52726;48.852;9.152;2022-10-17T14:32:32;2.05;;;1.70;;
65971;SDS011;52726;48.852;9.152;2022-10-17T14:35:03;3.13;;;1.60;;
65971;SDS011;52726;48.852;9.152;2022-10-17T14:40:22;6.60;;;1.58;;
65971;SDS011;52726;48.852;9.152;2022-10-17T14:42:52;3.70;;;1.20;;
65971;SDS011;52726;48.852;9.152;2022-10-17T14:45:26;2.60;;;1.33;;
65971;SDS011;52726;48.852;9.152;2022-10-17T14:47:55;4.97;;;1.35;;
65971;SDS011;52726;48.852;9.152;2022-10-17T14:50:26;4.72;;;1.70;;
65971;SDS011;52726;48.852;9.152;2022-10-17T14:55:37;3.38;;;1.50;;
65971;SDS011;52726;48.852;9.152;2022-10-17T15:01:01;7.60;;;1.60;;
65971;SDS011;52726;48.852;9.152;2022-10-17T15:03:27;8.05;;;1.77;;
65971;SDS011;52726;48.852;9.152;2022-10-17T15:05:53;2.67;;;1.42;;
65971;SDS011;52726;48.852;9.152;2022-10-17T15:08:19;2.38;;;1.67;;
65971;SDS011;52726;48.852;9.152;2022-10-17T15:10:47;5.22;;;1.58;;
65971;SDS011;52726;48.852;9.152;2022-10-17T15:13:14;2.70;;;1.80;;
65971;SDS011;52726;48.852;9.152;2022-10-17T15:15:42;3.70;;;1.73;;
65971;SDS011;52726;48.852;9.152;2022-10-17T15:18:09;4.22;;;1.40;;
65971;SDS011;52726;48.852;9.152;2022-10-17T15:20:36;4.15;;;1.27;;
65971;SDS011;52726;48.852;9.152;2022-10-17T15:23:02;9.35;;;1.98;;
65971;SDS011;52726;48.852;9.152;2022-10-17T15:25:29;10.88;;;1.70;;
65971;SDS011;52726;48.852;9.152;2022-10-17T15:27:55;4.65;;;1.52;;
65971;SDS011;52726;48.852;9.152;2022-10-17T15:30:22;3.10;;;1.50;;
65971;SDS011;52726;48.852;9.152;2022-10-17T15:32:49;3.13;;;1.38;;
65971;SDS011;52726;48.852;9.152;2022-10-17T15:35:15;3.85;;;1.55;;
65971;SDS011;52726;48.852;9.152;2022-10-17T15:37:42;4.72;;;1.65;;
65971;SDS011;52726;48.852;9.152;2022-10-17T15:40:13;5.70;;;1.60;;
65971;SDS011;52726;48.852;9.152;2022-10-17T15:42:40;2.03;;;1.60;;
65971;SDS011;52726;48.852;9.152;2022-10-17T15:45:07;2.92;;;1.58;;
65971;SDS011;52726;48.852;9.152;2022-10-17T15:47:34;4.85;;;1.60;;
65971;SDS011;52726;48.852;9.152;2022-10-17T15:50:00;6.55;;;1.85;;
65971;SDS011;52726;48.852;9.152;2022-10-17T15:52:26;3.38;;;2.42;;
65971;SDS011;52726;48.852;9.152;2022-10-17T15:54:52;7.10;;;2.03;;
65971;SDS011;52726;48.852;9.152;2022-10-17T15:57:19;4.68;;;1.52;;
65971;SDS011;52726;48.852;9.152;2022-10-17T15:59:50;13.82;;;1.98;;
65971;SDS011;52726;48.852;9.152;2022-10-17T16:02:17;5.13;;;1.63;;
65971;SDS011;52726;48.852;9.152;2022-10-17T16:04:44;4.18;;;1.40;;
65971;SDS011;52726;48.852;9.152;2022-10-17T16:07:11;4.55;;;1.98;;
65971;SDS011;52726;48.852;9.152;2022-10-17T16:09:36;4.03;;;1.60;;
65971;SDS011;52726;48.852;9.152;2022-10-17T16:12:02;4.13;;;1.50;;
65971;SDS011;52726;48.852;9.152;2022-10-17T16:14:29;5.38;;;1.95;;
65971;SDS011;52726;48.852;9.152;2022-10-17T16:16:56;2.80;;;2.00;;
65971;SDS011;52726;48.852;9.152;2022-10-17T16:19:23;3.70;;;1.80;;
65971;SDS011;52726;48.852;9.152;2022-10-17T16:21:50;1.67;;;1.48;;
65971;SDS011;52726;48.852;9.152;2022-10-17T16:24:15;4.53;;;1.55;;
65971;SDS011;52726;48.852;9.152;2022-10-17T16:26:41;5.00;;;1.65;;
65971;SDS011;52726;48.852;9.152;2022-10-17T16:29:07;5.72;;;1.80;;
65971;SDS011;52726;48.852;9.152;2022-10-17T16:31:34;4.88;;;1.58;;
65971;SDS011;52726;48.852;9.152;2022-10-17T16:34:03;2.22;;;2.05;;
65971;SDS011;52726;48.852;9.152;2022-10-17T16:36:30;3.38;;;1.77;;
65971;SDS011;52726;48.852;9.152;2022-10-17T16:38:55;4.03;;;1.88;;
65971;SDS011;52726;48.852;9.152;2022-10-17T16:41:22;2.60;;;1.73;;
65971;SDS011;52726;48.852;9.152;2022-10-17T16:43:48;3.13;;;1.88;;
65971;SDS011;52726;48.852;9.152;2022-10-17T16:46:15;8.85;;;1.80;;
65971;SDS011;52726;48.852;9.152;2022-10-17T16:48:41;15.45;;;4.97;;
65971;SDS011;52726;48.852;9.152;2022-10-17T16:51:11;8.90;;;3.88;;
65971;SDS011;52726;48.852;9.152;2022-10-17T16:53:37;3.42;;;1.88;;
65971;SDS011;52726;48.852;9.152;2022-10-17T16:56:08;9.65;;;2.40;;
65971;SDS011;52726;48.852;9.152;2022-10-17T16:58:34;7.20;;;4.65;;
65971;SDS011;52726;48.852;9.152;2022-10-17T17:01:00;7.43;;;3.88;;
65971;SDS011;52726;48.852;9.152;2022-10-17T17:03:28;26.13;;;4.68;;
65971;SDS011;52726;48.852;9.152;2022-10-17T17:05:53;8.88;;;3.10;;
65971;SDS011;52726;48.852;9.152;2022-10-17T17:08:19;9.23;;;3.10;;
65971;SDS011;52726;48.852;9.152;2022-10-17T17:10:44;4.60;;;3.00;;
65971;SDS011;52726;48.852;9.152;2022-10-17T17:13:18;5.50;;;2.75;;
65971;SDS011;52726;48.852;9.152;2022-10-17T17:15:44;8.10;;;2.70;;
65971;SDS011;52726;48.852;9.152;2022-10-17T17:18:10;3.35;;;2.25;;
65971;SDS011;52726;48.852;9.152;2022-10-17T17:20:37;21.98;;;3.10;;
65971;SDS011;52726;48.852;9.152;2022-10-17T17:23:03;4.78;;;2.78;;
65971;SDS011;52726;48.852;9.152;2022-10-17T17:25:28;7.32;;;2.33;;
65971;SDS011;52726;48.852;9.152;2022-10-17T17:27:54;6.50;;;2.63;;
65971;SDS011;52726;48.852;9.152;2022-10-17T17:30:19;6.53;;;2.53;;